This is the latest recevied weather packets stored in our database for station/object K5NWZ. If no packets are shown the sender has not sent any weather packets the latest 10 day(s).
| Time | Temp. | Humidity | Pressure | Rain* | Wind** | Luminosity | Snow |
|---|---|---|---|---|---|---|---|
| 1787712273 | 22.22° C | 57% | 1033.9 hPa | 0 mm | - | 0 W/m² | - |
| 1787711968 | 22.22° C | 56% | 1033.7 hPa | 0 mm | - | 0 W/m² | - |
| 1787711664 | 22.78° C | 56% | 1033.8 hPa | 0 mm | - | 0 W/m² | - |
| 1787711359 | 22.78° C | 56% | 1033.7 hPa | 0 mm | - | 0 W/m² | - |
| 1787711055 | 22.78° C | 55% | 1033.4 hPa | 0 mm | - | 0 W/m² | - |
| 1787710752 | 23.33° C | 54% | 1033.4 hPa | 0 mm | - | 0 W/m² | - |
| 1787710451 | 23.33° C | 54% | 1033.3 hPa | 0 mm | - | 0 W/m² | - |
| 1787710148 | 23.89° C | 52% | 1033.3 hPa | 0 mm | - | 0 W/m² | - |
| 1787709843 | 23.89° C | 51% | 1033.1 hPa | 0 mm | - | 0 W/m² | - |
| 1787709543 | 23.89° C | 51% | 1033.2 hPa | 0 mm | - | 0 W/m² | - |
| 1787709239 | 23.89° C | 52% | 1032.9 hPa | 0 mm | - | 1 W/m² | - |
| 1787708935 | 24.44° C | 51% | 1033.1 hPa | 0 mm | - | 1 W/m² | - |
| 1787708630 | 24.44° C | 50% | 1032.9 hPa | 0 mm | - | 3 W/m² | - |
| 1787708326 | 25° C | 50% | 1032.7 hPa | 0 mm | - | 4 W/m² | - |
| 1787708020 | 25° C | 50% | 1033 hPa | 0 mm | - | 7 W/m² | - |
| 1787707717 | 25° C | 49% | 1032.5 hPa | 0 mm | - | 9 W/m² | - |
| 1787707412 | 25.56° C | 49% | 1032.4 hPa | 0 mm | - | 11 W/m² | - |
| 1787707107 | 25.56° C | 48% | 1032.4 hPa | 0 mm | - | 15 W/m² | - |
| 1787706806 | 25.56° C | 49% | 1032.3 hPa | 0 mm | - | 19 W/m² | - |
| 1787706502 | 25.56° C | 49% | 1032.5 hPa | 0 mm | - | 25 W/m² | - |
| 1787706197 | 25.56° C | 49% | 1032.6 hPa | 0 mm | - | 25 W/m² | - |
| 1787705892 | 25.56° C | 49% | 1032.7 hPa | 0 mm | - | 24 W/m² | - |
| 1787705588 | 26.11° C | 48% | 1032.7 hPa | 0 mm | - | 33 W/m² | - |
| 1787705283 | 27.22° C | 42% | 1032.5 hPa | 0 mm | - | 53 W/m² | - |
| 1787704977 | 27.78° C | 36% | 1032.4 hPa | 0 mm | - | 56 W/m² | - |
* Rain latest hour (hover to see other rain measurements)
** Current wind speed in m/s (hover to see current wind gust speed)